ENSO/SRP METAR and TAF weather

Enter ICAO airport designator
Station Type Date Time Source
ENSO METAR 2021/05/12 04:20 UTC NOAA

ENSO 120420Z VRB01KT CAVOK 07/06 Q1011


Station Type Date Time Source
ENSO Decoded METAR 2021/05/12 04:20 UTC NOAA

Stord / Soerstokken, Norway (ENSO) 59-48N 005-21E
May 12, 2021 - 12:20 AM EDT / 2021.05.12 0420 UTC
Wind: Variable at 1 MPH (1 KT):0
Visibility: greater than 7 mile(s):0
Temperature: 44 F (7 C)
Dew Point: 42 F (6 C)
Relative Humidity: 93%
Pressure (altimeter): 29.85 in. Hg (1011 hPa)
ob: ENSO 120420Z VRB01KT CAVOK 07/06 Q1011
cycle: 4

Station Type Date Time Source
ENSO TAF UTC NOAA

Error!

Example: see airport list